Time;durP1;ratioP1;P1;durP2;ratioP2;P2;SDS_P1;SDS_P2;PMS_P1;PMS_P2;Temp;Humidity;BMP_temperature;BMP_pressure;BME280_temperature;BME280_humidity;BME280_pressure;Samples;Min_cycle;Max_cycle;Signal;HPM_P1;HPM_P2
2022/07/24 00:00:07;;;;;;;4.93;2.35;;;;;;;18.24;57.85;100994.31;5028358;28;20117;-45
2022/07/24 00:02:33;;;;;;;6.85;2.88;;;;;;;18.23;57.80;100998.91;5017105;28;20044;-49
2022/07/24 00:05:01;;;;;;;3.95;2.35;;;;;;;18.18;57.58;100993.44;5027729;28;20029;-49
2022/07/24 00:07:28;;;;;;;7.60;3.00;;;;;;;17.92;58.35;100986.88;5029756;28;20037;-47
2022/07/24 00:09:55;;;;;;;9.80;3.08;;;;;;;17.67;59.00;100990.84;5029824;28;20033;-50
2022/07/24 00:12:21;;;;;;;6.05;3.13;;;;;;;17.44;59.92;100991.06;5028125;28;20036;-48
2022/07/24 00:14:47;;;;;;;8.00;3.38;;;;;;;17.42;60.19;100994.00;5029428;28;20382;-50
2022/07/24 00:17:14;;;;;;;8.90;3.53;;;;;;;17.28;60.78;100986.47;5026801;28;20060;-47
2022/07/24 00:19:40;;;;;;;8.60;3.80;;;;;;;17.02;62.08;100993.34;5017095;28;20149;-47
2022/07/24 00:22:06;;;;;;;8.00;4.15;;;;;;;17.10;61.16;100998.34;5024712;28;20033;-46
2022/07/24 00:24:32;;;;;;;6.75;3.25;;;;;;;17.03;61.11;100995.00;5029451;28;20026;-46
2022/07/24 00:27:00;;;;;;;10.40;4.75;;;;;;;17.09;61.59;100991.28;5031367;28;20029;-47
2022/07/24 00:29:27;;;;;;;7.60;4.05;;;;;;;17.33;61.55;101002.78;5031311;28;20127;-48
2022/07/24 00:31:53;;;;;;;10.45;3.80;;;;;;;17.29;61.19;101004.34;5032977;28;20025;-50
2022/07/24 00:34:20;;;;;;;9.23;4.18;;;;;;;17.18;60.95;101007.94;5028515;28;20466;-47
2022/07/24 00:36:46;;;;;;;9.30;3.90;;;;;;;16.83;61.88;101000.88;5021405;28;20133;-51
2022/07/24 00:39:12;;;;;;;8.25;4.22;;;;;;;16.56;62.43;101000.63;5017067;28;20627;-52
2022/07/24 00:41:39;;;;;;;9.80;3.85;;;;;;;16.30;62.98;100992.00;5017431;28;20033;-52
2022/07/24 00:44:08;;;;;;;13.10;4.20;;;;;;;16.41;63.14;100997.63;5023106;28;20022;-51
2022/07/24 00:46:36;;;;;;;8.57;3.58;;;;;;;16.37;63.55;100992.69;5032910;28;20036;-50
2022/07/24 00:49:08;;;;;;;10.43;3.60;;;;;;;16.41;63.52;100993.03;5023823;28;20022;-47
2022/07/24 00:51:35;;;;;;;12.48;4.10;;;;;;;16.46;63.41;100993.13;5014821;28;20022;-46
2022/07/24 00:54:05;;;;;;;9.35;3.42;;;;;;;16.41;63.32;100984.94;5014991;28;20498;-46
2022/07/24 00:56:32;;;;;;;9.50;3.78;;;;;;;16.25;64.23;100981.09;5014872;28;20486;-48
2022/07/24 00:59:00;;;;;;;6.47;3.40;;;;;;;16.17;63.33;100977.97;5027751;28;20109;-46
2022/07/24 01:01:27;;;;;;;8.02;3.38;;;;;;;16.12;63.55;100980.56;5026325;28;20091;-46
2022/07/24 01:03:53;;;;;;;7.43;3.13;;;;;;;16.10;63.28;100981.66;5026303;28;20215;-47
2022/07/24 01:06:20;;;;;;;6.32;3.60;;;;;;;15.91;64.11;100974.75;5025494;28;20036;-47
2022/07/24 01:08:47;;;;;;;6.78;3.67;;;;;;;15.66;65.10;100976.91;5020202;28;20109;-43
2022/07/24 01:11:14;;;;;;;9.27;4.35;;;;;;;15.50;66.02;100978.41;5014814;28;20010;-44
2022/07/24 01:13:41;;;;;;;8.18;4.25;;;;;;;15.35;66.56;100972.66;5017896;28;20021;-41
2022/07/24 01:16:09;;;;;;;8.95;4.95;;;;;;;15.36;66.95;100964.31;5024740;28;20025;-48
2022/07/24 01:18:36;;;;;;;11.10;4.65;;;;;;;15.19;66.88;100964.22;5032922;28;20048;-52
2022/07/24 01:21:04;;;;;;;13.27;5.22;;;;;;;14.99;68.03;100959.16;5032115;28;20048;-49
2022/07/24 01:23:31;;;;;;;6.53;4.63;;;;;;;14.98;68.01;100964.75;5032155;28;20470;-46
2022/07/24 01:25:57;;;;;;;7.05;4.60;;;;;;;14.95;68.24;100954.47;5032248;28;20034;-47
2022/07/24 01:28:24;;;;;;;8.48;4.20;;;;;;;14.93;68.50;100956.53;5018248;28;20112;-47
2022/07/24 01:30:50;;;;;;;9.90;5.18;;;;;;;14.87;68.41;100949.38;5032781;28;20100;-57
2022/07/24 01:33:16;;;;;;;11.38;4.95;;;;;;;14.89;68.77;100961.59;5032538;28;20409;-49
2022/07/24 01:35:43;;;;;;;7.22;4.20;;;;;;;14.77;68.37;100955.38;5029702;28;20079;-46
2022/07/24 01:38:12;;;;;;;6.60;4.15;;;;;;;14.79;68.55;100964.03;5032537;28;20068;-45
2022/07/24 01:40:39;;;;;;;6.55;4.47;;;;;;;14.65;68.90;100963.38;5032319;28;20029;-46
2022/07/24 01:43:06;;;;;;;8.10;4.05;;;;;;;14.58;69.11;100959.16;5031809;28;20022;-51
2022/07/24 01:45:33;;;;;;;6.30;4.20;;;;;;;14.52;69.28;100952.81;5033841;28;20111;-59
2022/07/24 01:47:59;;;;;;;6.60;4.72;;;;;;;14.35;69.78;100951.78;5032577;28;20108;-46
2022/07/24 01:50:25;;;;;;;7.40;5.20;;;;;;;14.35;69.98;100963.38;5033493;28;20116;-49
2022/07/24 01:52:53;;;;;;;11.07;5.32;;;;;;;14.26;70.25;100951.28;5032779;28;20382;-51
2022/07/24 01:55:20;;;;;;;9.02;5.55;;;;;;;14.09;70.70;100952.94;5033353;28;20045;-47
2022/07/24 01:57:47;;;;;;;12.18;5.90;;;;;;;14.04;71.56;100950.13;5033054;28;20025;-44
2022/07/24 02:00:14;;;;;;;7.43;5.07;;;;;;;14.05;71.35;100957.97;5031352;28;20768;-46
2022/07/24 02:02:43;;;;;;;9.18;5.05;;;;;;;14.13;70.95;100956.84;5033439;28;20033;-42
2022/07/24 02:05:10;;;;;;;11.00;5.60;;;;;;;13.94;71.64;100962.25;5030848;28;20385;-54
2022/07/24 02:07:36;;;;;;;11.02;5.50;;;;;;;13.88;72.17;100973.91;5030290;28;23811;-53
2022/07/24 02:10:03;;;;;;;11.57;5.13;;;;;;;14.03;71.68;100968.13;5025662;28;20029;-53
2022/07/24 02:12:29;;;;;;;13.23;5.43;;;;;;;13.97;72.46;100967.16;5004874;28;20124;-50
2022/07/24 02:14:55;;;;;;;11.38;5.95;;;;;;;13.97;72.42;100974.41;5013565;28;20032;-51
2022/07/24 02:17:21;;;;;;;13.32;6.18;;;;;;;14.05;72.45;100973.28;5025118;28;20034;-54
2022/07/24 02:19:48;;;;;;;10.18;5.30;;;;;;;14.09;72.11;100978.00;5031050;28;20052;-52
2022/07/24 02:22:14;;;;;;;11.27;5.00;;;;;;;13.88;73.18;100984.69;5032290;28;20049;-53
2022/07/24 02:24:40;;;;;;;13.77;4.80;;;;;;;13.87;73.66;100980.31;5032721;28;20021;-52
2022/07/24 02:27:07;;;;;;;13.02;4.95;;;;;;;13.90;73.73;100987.13;5032557;28;20030;-53
2022/07/24 02:29:33;;;;;;;10.27;5.03;;;;;;;13.90;73.81;100989.84;5031132;28;20513;-50
2022/07/24 02:32:00;;;;;;;17.13;5.38;;;;;;;13.91;73.96;100994.97;5013218;28;20026;-51
2022/07/24 02:34:26;;;;;;;11.82;4.95;;;;;;;13.86;73.16;100997.50;5031053;28;20480;-53
2022/07/24 02:36:53;;;;;;;13.63;5.32;;;;;;;13.82;72.97;100988.25;5032795;28;20033;-53
2022/07/24 02:39:19;;;;;;;11.43;4.93;;;;;;;13.55;74.00;100992.25;5031123;28;20513;-55
2022/07/24 02:41:45;;;;;;;10.32;5.35;;;;;;;13.62;73.76;100985.78;5031907;28;20029;-48
2022/07/24 02:44:11;;;;;;;13.32;5.22;;;;;;;13.63;73.17;100981.22;5031017;28;20116;-43
2022/07/24 02:46:37;;;;;;;12.75;4.53;;;;;;;13.65;73.04;100989.88;5032799;28;20065;-49
2022/07/24 02:49:03;;;;;;;13.75;5.45;;;;;;;13.55;73.67;100985.03;5027597;28;20036;-44
2022/07/24 02:51:30;;;;;;;12.30;5.25;;;;;;;13.52;74.18;100996.22;5039042;23;20502;-42
2022/07/24 02:53:56;;;;;;;15.32;6.38;;;;;;;13.37;74.71;100982.28;5039292;28;20204;-44
2022/07/24 02:56:22;;;;;;;11.45;5.50;;;;;;;13.24;75.25;100988.59;5052226;28;20423;-44
2022/07/24 02:58:48;;;;;;;11.35;5.53;;;;;;;13.22;75.63;100989.88;5026064;28;20040;-44
2022/07/24 03:01:14;;;;;;;11.57;5.18;;;;;;;13.25;75.70;100984.88;5024647;28;20397;-43
2022/07/24 03:03:41;;;;;;;12.10;5.68;;;;;;;13.16;75.81;100983.50;5020476;28;20030;-42
2022/07/24 03:06:07;;;;;;;9.68;5.38;;;;;;;13.19;75.79;100978.47;5024111;28;20033;-44
2022/07/24 03:08:33;;;;;;;13.40;5.05;;;;;;;13.08;76.19;100981.88;5034235;28;20441;-44
2022/07/24 03:10:59;;;;;;;8.70;4.70;;;;;;;13.09;75.27;100975.47;5031168;28;20352;-42
2022/07/24 03:13:26;;;;;;;11.40;4.32;;;;;;;13.16;74.82;100980.81;5030807;28;20032;-43
2022/07/24 03:15:52;;;;;;;19.17;5.47;;;;;;;12.94;76.00;100974.97;5023261;28;20029;-42
2022/07/24 03:18:18;;;;;;;11.60;4.72;;;;;;;12.94;76.48;100978.50;5022279;28;21898;-41
2022/07/24 03:20:44;;;;;;;9.45;3.78;;;;;;;12.95;76.17;100974.75;5016578;28;20030;-43
2022/07/24 03:23:10;;;;;;;10.63;4.07;;;;;;;12.81;76.81;100981.25;5024990;28;20031;-42
2022/07/24 03:25:36;;;;;;;12.80;3.95;;;;;;;12.90;76.60;100979.97;5032036;28;20433;-41
2022/07/24 03:28:03;;;;;;;11.43;4.10;;;;;;;12.84;77.38;100982.69;5013602;28;20022;-41
2022/07/24 03:30:29;;;;;;;9.48;3.78;;;;;;;12.72;77.69;100982.56;5030324;28;20087;-41
2022/07/24 03:32:55;;;;;;;9.45;3.88;;;;;;;12.56;78.38;100985.75;5032138;28;20100;-41
2022/07/24 03:35:22;;;;;;;8.65;4.03;;;;;;;12.57;78.43;100982.03;5031532;28;20116;-42
2022/07/24 03:37:48;;;;;;;8.43;3.67;;;;;;;12.51;78.79;100978.34;5031469;28;20029;-42
2022/07/24 03:40:14;;;;;;;6.07;3.13;;;;;;;12.56;78.50;100977.72;5031036;28;20037;-41
2022/07/24 03:42:41;;;;;;;6.80;3.47;;;;;;;12.51;78.57;100977.53;5029079;28;20033;-41
2022/07/24 03:45:07;;;;;;;8.73;3.53;;;;;;;12.48;78.55;100969.91;5030882;28;20042;-42
2022/07/24 03:47:34;;;;;;;6.55;3.22;;;;;;;12.46;77.99;100969.28;5031445;28;20119;-41
2022/07/24 03:50:00;;;;;;;7.10;2.97;;;;;;;12.38;78.23;100975.72;5031628;28;20410;-40
2022/07/24 03:52:26;;;;;;;6.78;2.88;;;;;;;12.25;79.16;100981.97;5031465;28;20025;-41
2022/07/24 03:54:52;;;;;;;5.25;2.92;;;;;;;12.24;79.31;100983.03;5031489;28;20025;-41
2022/07/24 03:57:19;;;;;;;8.73;3.58;;;;;;;12.25;79.71;100983.84;5031933;28;20382;-41
2022/07/24 03:59:46;;;;;;;9.55;3.28;;;;;;;12.22;80.85;100986.97;5031452;28;20327;-41
2022/07/24 04:02:12;;;;;;;9.15;3.75;;;;;;;12.15;80.63;100984.28;5033344;28;20022;-41
2022/07/24 04:04:38;;;;;;;10.77;3.63;;;;;;;12.19;80.62;100992.75;5025673;28;20041;-42
2022/07/24 04:07:05;;;;;;;6.65;3.40;;;;;;;12.24;80.47;100987.56;5014743;28;20026;-41
2022/07/24 04:09:31;;;;;;;11.07;3.30;;;;;;;12.19;80.36;100987.38;5015104;28;20470;-42
2022/07/24 04:11:57;;;;;;;9.25;3.17;;;;;;;12.19;80.41;100990.06;5035047;28;20041;-41
2022/07/24 04:14:23;;;;;;;9.80;3.85;;;;;;;12.19;80.33;100990.06;5035058;28;20382;-41
2022/07/24 04:16:50;;;;;;;13.02;3.88;;;;;;;12.25;80.40;100990.03;5034759;28;20089;-41
2022/07/24 04:19:17;;;;;;;12.68;3.85;;;;;;;12.16;80.60;100999.38;5034905;28;20021;-42
2022/07/24 04:21:43;;;;;;;14.50;3.78;;;;;;;12.16;80.55;100996.69;5030842;28;20053;-41
2022/07/24 04:24:09;;;;;;;12.32;4.00;;;;;;;12.23;80.66;101002.84;5015240;28;20030;-41
2022/07/24 04:26:35;;;;;;;10.63;4.05;;;;;;;12.28;80.29;100995.00;5014959;28;20040;-41
2022/07/24 04:29:01;;;;;;;9.02;3.92;;;;;;;12.18;80.80;101008.03;5029114;28;20052;-41
2022/07/24 04:31:28;;;;;;;10.02;3.50;;;;;;;12.20;80.48;101007.81;5034591;28;20459;-41
2022/07/24 04:33:54;;;;;;;11.48;3.88;;;;;;;12.09;81.14;101012.78;5022041;28;20414;-42
2022/07/24 04:36:20;;;;;;;12.23;4.65;;;;;;;12.23;80.83;101018.13;5014432;28;20032;-42
2022/07/24 04:38:46;;;;;;;10.00;4.28;;;;;;;12.29;80.73;101026.16;5030403;28;20021;-41
2022/07/24 04:41:13;;;;;;;9.55;3.75;;;;;;;12.39;79.94;101021.16;5034818;28;20030;-41
2022/07/24 04:43:39;;;;;;;12.40;4.18;;;;;;;12.36;80.08;101018.88;5034804;28;20026;-42
2022/07/24 04:46:06;;;;;;;12.65;4.07;;;;;;;12.35;79.92;101017.25;5034617;28;20451;-41
2022/07/24 04:48:32;;;;;;;12.93;4.47;;;;;;;12.19;80.53;101027.63;5034334;28;20036;-42
2022/07/24 04:50:58;;;;;;;11.98;3.72;;;;;;;12.27;80.47;101024.69;5034077;28;20044;-41
2022/07/24 04:53:24;;;;;;;10.23;4.35;;;;;;;12.24;80.36;101019.78;5033953;28;20490;-41
2022/07/24 04:55:51;;;;;;;9.30;3.72;;;;;;;12.31;80.02;101017.88;5032588;28;20026;-41
2022/07/24 04:58:17;;;;;;;12.30;4.55;;;;;;;12.29;80.10;101028.84;5030731;28;20034;-41
2022/07/24 05:00:43;;;;;;;9.38;4.47;;;;;;;12.27;79.92;101035.44;5028071;28;20033;-41
2022/07/24 05:03:10;;;;;;;6.25;3.25;;;;;;;12.26;80.14;101033.78;5032439;28;20117;-41
2022/07/24 05:05:36;;;;;;;8.32;3.70;;;;;;;12.28;79.43;101019.16;5033175;28;20025;-41
2022/07/24 05:08:02;;;;;;;11.73;3.58;;;;;;;12.22;79.83;101030.72;5033787;28;20032;-41
2022/07/24 05:10:28;;;;;;;15.48;4.80;;;;;;;12.22;79.60;101032.59;5033878;28;20064;-41
2022/07/24 05:12:54;;;;;;;14.30;4.60;;;;;;;12.16;80.07;101020.84;5033358;28;20053;-41
2022/07/24 05:15:21;;;;;;;21.35;5.50;;;;;;;12.17;80.54;101022.50;5034117;28;20548;-41
2022/07/24 05:17:47;;;;;;;15.20;5.32;;;;;;;12.18;81.03;101026.81;5033078;28;20417;-42
2022/07/24 05:20:14;;;;;;;22.38;5.82;;;;;;;12.30;80.81;101022.44;5033557;28;20025;-41
2022/07/24 05:22:40;;;;;;;21.85;6.25;;;;;;;12.32;81.04;101006.94;5033778;28;20030;-40
2022/07/24 05:25:07;;;;;;;30.70;7.30;;;;;;;12.37;80.98;101025.91;5016128;28;20017;-42
2022/07/24 05:27:33;;;;;;;24.42;6.43;;;;;;;12.38;80.97;101027.56;5033606;28;20043;-40
2022/07/24 05:29:59;;;;;;;26.73;7.10;;;;;;;12.33;81.54;101018.50;5033467;28;20029;-41
2022/07/24 05:32:25;;;;;;;28.02;7.35;;;;;;;12.44;80.96;101036.63;5033416;28;20596;-41
2022/07/24 05:34:51;;;;;;;28.52;7.18;;;;;;;12.41;80.72;101031.69;5033358;28;20030;-39
2022/07/24 05:37:18;;;;;;;25.70;7.53;;;;;;;12.33;81.15;101032.75;5033509;28;20034;-41
2022/07/24 05:39:44;;;;;;;29.10;6.93;;;;;;;12.40;81.44;101020.13;5032920;28;20133;-41
2022/07/24 05:42:10;;;;;;;30.33;6.97;;;;;;;12.49;80.69;101026.06;5033283;28;20116;-41
2022/07/24 05:44:37;;;;;;;32.75;7.78;;;;;;;12.46;80.93;101018.44;5033497;28;20033;-41
2022/07/24 05:47:04;;;;;;;30.17;8.10;;;;;;;12.56;80.93;101016.13;5022779;28;20034;-41
2022/07/24 05:49:30;;;;;;;34.97;7.47;;;;;;;12.49;81.08;101028.72;5012704;28;20036;-41
2022/07/24 05:51:56;;;;;;;32.45;8.18;;;;;;;12.54;80.72;101020.88;5011254;28;20113;-41
2022/07/24 05:54:23;;;;;;;38.70;7.80;;;;;;;12.52;80.85;101017.56;5013182;28;20026;-41
2022/07/24 05:56:49;;;;;;;26.13;7.95;;;;;;;12.55;80.79;101017.16;5024078;28;20084;-41
2022/07/24 05:59:15;;;;;;;28.27;8.40;;;;;;;12.55;80.70;101035.13;5028070;28;20052;-41
2022/07/24 06:01:41;;;;;;;33.53;7.68;;;;;;;12.52;80.76;101039.06;5033131;28;20060;-41
2022/07/24 06:04:08;;;;;;;29.48;7.97;;;;;;;12.45;81.34;101040.13;5032534;28;20112;-41
2022/07/24 06:06:34;;;;;;;32.72;8.07;;;;;;;12.57;80.87;101043.78;5033258;28;20079;-41
2022/07/24 06:09:00;;;;;;;24.48;7.40;;;;;;;12.66;80.67;101031.78;5032483;28;20078;-41
2022/07/24 06:11:26;;;;;;;26.70;7.97;;;;;;;12.71;79.99;101031.94;5016499;28;20022;-40
2022/07/24 06:13:53;;;;;;;41.42;8.63;;;;;;;12.62;80.69;101027.88;5013072;28;20029;-41
2022/07/24 06:16:19;;;;;;;25.58;7.68;;;;;;;12.61;81.03;101039.66;5017563;28;20359;-41
2022/07/24 06:18:45;;;;;;;34.45;8.10;;;;;;;12.61;80.80;101040.47;5032176;28;20021;-40
2022/07/24 06:21:11;;;;;;;24.33;7.45;;;;;;;12.67;80.06;101036.94;5032441;28;20036;-40
2022/07/24 06:23:38;;;;;;;35.40;9.10;;;;;;;12.72;80.31;101038.97;5032261;28;20056;-41
2022/07/24 06:26:04;;;;;;;29.48;7.57;;;;;;;12.61;80.75;101031.59;5031932;28;20021;-41
2022/07/24 06:28:30;;;;;;;34.95;7.00;;;;;;;12.62;80.42;101027.88;5021236;28;20037;-41
2022/07/24 06:30:57;;;;;;;34.67;8.73;;;;;;;12.61;80.25;101026.22;5012623;28;20367;-41
2022/07/24 06:33:23;;;;;;;23.25;6.75;;;;;;;12.55;80.64;101030.59;5019765;28;20021;-41
2022/07/24 06:35:50;;;;;;;35.53;8.02;;;;;;;12.56;80.64;101031.41;5026368;28;20072;-41
2022/07/24 06:38:16;;;;;;;23.73;7.10;;;;;;;12.59;80.54;101025.59;5031778;28;20022;-41
2022/07/24 06:40:43;;;;;;;37.53;8.82;;;;;;;12.64;80.94;101023.09;5032201;28;20025;-41
2022/07/24 06:43:09;;;;;;;36.05;7.60;;;;;;;12.61;80.79;101024.34;5031368;28;20037;-41
2022/07/24 06:45:36;;;;;;;38.22;7.88;;;;;;;12.59;80.99;101029.09;5031789;28;20021;-41
2022/07/24 06:48:03;;;;;;;41.78;9.10;;;;;;;12.62;81.09;101033.25;5015041;28;20041;-41
2022/07/24 06:50:30;;;;;;;31.88;9.32;;;;;;;12.61;81.32;101039.66;5012306;28;20053;-41
2022/07/24 06:52:56;;;;;;;32.75;8.15;;;;;;;12.66;81.08;101035.28;5013055;28;20021;-42
2022/07/24 06:55:22;;;;;;;32.97;9.45;;;;;;;12.69;80.66;101037.53;5012247;28;20152;-41
2022/07/24 06:57:49;;;;;;;43.45;8.20;;;;;;;12.71;81.05;101039.16;5020295;28;20033;-41
2022/07/24 07:00:15;;;;;;;28.02;7.70;;;;;;;12.69;81.19;101042.06;5031707;28;20032;-41
2022/07/24 07:02:41;;;;;;;32.55;8.10;;;;;;;12.59;81.32;101050.59;5032191;28;20445;-41
2022/07/24 07:05:08;;;;;;;27.58;7.25;;;;;;;12.68;80.85;101043.13;5031780;28;20037;-41
2022/07/24 07:07:38;;;;;;;32.40;7.57;;;;;;;12.75;80.71;101035.84;5031949;28;20036;-42
2022/07/24 07:10:06;;;;;;;25.70;7.28;;;;;;;12.80;80.29;101038.69;5031338;28;20535;-42
2022/07/24 07:12:32;;;;;;;38.15;8.43;;;;;;;12.73;80.51;101037.94;5031863;28;20022;-42
2022/07/24 07:14:59;;;;;;;22.25;7.20;;;;;;;12.87;80.20;101034.09;5031415;28;20112;-41
2022/07/24 07:17:26;;;;;;;32.63;7.32;;;;;;;12.90;79.82;101031.00;5031331;28;20604;-41
2022/07/24 07:19:52;;;;;;;30.42;8.20;;;;;;;12.95;79.99;101044.59;5031506;28;20505;-41
2022/07/24 07:22:19;;;;;;;32.47;6.90;;;;;;;13.00;79.74;101040.47;5031428;28;20025;-41
2022/07/24 07:24:45;;;;;;;24.63;6.95;;;;;;;13.08;79.26;101042.88;5031783;28;20032;-41
2022/07/24 07:27:11;;;;;;;30.10;7.63;;;;;;;12.98;79.51;101039.84;5005905;28;20172;-41
2022/07/24 07:29:37;;;;;;;27.10;7.45;;;;;;;12.92;79.62;101039.66;5031052;28;20029;-41
2022/07/24 07:32:04;;;;;;;29.42;8.38;;;;;;;12.89;79.87;101048.16;5031520;28;20029;-42
2022/07/24 07:34:30;;;;;;;26.92;7.40;;;;;;;12.92;79.68;101041.53;5031001;28;20417;-41
2022/07/24 07:36:56;;;;;;;39.05;8.57;;;;;;;12.83;80.13;101038.28;5031432;28;20018;-41
2022/07/24 07:39:22;;;;;;;30.10;7.97;;;;;;;12.96;79.69;101034.69;5030982;28;20170;-42
2022/07/24 07:41:49;;;;;;;28.13;7.93;;;;;;;13.04;79.24;101037.09;5031639;28;20029;-41
2022/07/24 07:44:15;;;;;;;26.33;8.07;;;;;;;12.97;79.20;101036.31;5030912;28;20026;-41
2022/07/24 07:46:41;;;;;;;31.50;7.72;;;;;;;12.84;79.59;101031.88;5029061;28;20022;-41
2022/07/24 07:49:07;;;;;;;25.33;7.55;;;;;;;12.92;79.20;101033.47;5031302;28;20402;-41
2022/07/24 07:51:33;;;;;;;28.88;7.95;;;;;;;12.82;79.68;101030.41;5031103;28;21252;-41
2022/07/24 07:54:00;;;;;;;36.13;7.93;;;;;;;12.88;79.84;101030.41;5031346;28;20042;-41
2022/07/24 07:56:28;;;;;;;32.08;8.35;;;;;;;12.85;79.92;101036.19;5031270;28;20092;-41
2022/07/24 07:58:54;;;;;;;33.83;9.40;;;;;;;12.87;80.43;101038.66;5030728;28;20036;-42
2022/07/24 08:01:20;;;;;;;38.05;8.63;;;;;;;12.85;80.51;101038.88;5030431;28;20079;-41
2022/07/24 08:03:47;;;;;;;30.02;8.35;;;;;;;12.88;80.40;101041.16;5031190;28;20487;-41
2022/07/24 08:06:13;;;;;;;25.85;7.78;;;;;;;12.82;80.37;101036.63;5031247;28;20034;-41
2022/07/24 08:08:40;;;;;;;34.35;7.93;;;;;;;12.86;80.17;101039.69;5029404;28;20516;-41
2022/07/24 08:11:06;;;;;;;35.15;9.02;;;;;;;12.77;80.84;101031.09;5030812;28;20423;-42
2022/07/24 08:13:32;;;;;;;31.45;7.93;;;;;;;12.93;80.73;101024.34;5029479;28;20029;-41
2022/07/24 08:15:58;;;;;;;37.00;9.98;;;;;;;12.95;80.39;101031.19;5029710;28;20430;-41
2022/07/24 08:18:25;;;;;;;37.30;7.82;;;;;;;12.98;80.12;101023.72;5030865;28;20063;-41
2022/07/24 08:20:51;;;;;;;32.53;8.98;;;;;;;12.68;80.92;101035.88;5029491;28;20033;-42
2022/07/24 08:23:17;;;;;;;27.92;8.10;;;;;;;12.81;80.62;101034.97;5031261;28;20021;-42
2022/07/24 08:25:43;;;;;;;46.42;9.75;;;;;;;12.97;80.25;101027.44;5029111;28;20029;-42
2022/07/24 08:28:10;;;;;;;32.83;7.57;;;;;;;12.94;80.42;101024.16;5030977;28;20600;-41
2022/07/24 08:30:36;;;;;;;31.67;8.55;;;;;;;12.80;80.46;101025.28;5029716;28;20033;-41
2022/07/24 08:33:02;;;;;;;29.63;7.97;;;;;;;12.83;80.59;101026.72;5030621;28;20028;-41
2022/07/24 08:35:28;;;;;;;27.10;7.05;;;;;;;12.86;80.72;101035.16;5028395;28;20044;-42
2022/07/24 08:37:55;;;;;;;34.08;8.20;;;;;;;12.92;80.50;101028.09;5030922;28;20024;-41
2022/07/24 08:40:23;;;;;;;31.58;7.78;;;;;;;13.00;80.08;101035.09;5029479;28;20116;-41
2022/07/24 08:42:49;;;;;;;34.78;8.18;;;;;;;12.91;80.31;101032.63;5030623;28;20076;-41
2022/07/24 08:45:16;;;;;;;34.28;9.18;;;;;;;12.97;80.26;101038.19;5028425;28;20025;-42
2022/07/24 08:47:42;;;;;;;38.92;8.45;;;;;;;12.98;80.36;101029.91;5031525;28;20031;-43
2022/07/24 08:50:09;;;;;;;34.70;7.30;;;;;;;12.96;80.41;101032.00;5033022;28;20045;-41
2022/07/24 08:52:38;;;;;;;22.42;7.00;;;;;;;12.90;80.33;101033.69;5034537;28;20030;-42
2022/07/24 08:55:05;;;;;;;26.05;7.88;;;;;;;12.91;80.76;101029.97;5032979;28;20067;-42
2022/07/24 08:57:31;;;;;;;33.22;7.85;;;;;;;13.04;80.15;101030.91;5031470;28;20063;-42
2022/07/24 08:59:59;;;;;;;30.25;7.65;;;;;;;12.94;80.32;101028.72;5032493;28;20199;-41
2022/07/24 09:02:27;;;;;;;44.08;8.55;;;;;;;12.88;80.38;101027.72;5033120;28;20037;-41
2022/07/24 09:04:59;;;;;;;32.30;7.30;;;;;;;12.89;80.48;101033.91;5031241;28;20038;-41
2022/07/24 09:07:28;;;;;;;34.85;7.32;;;;;;;12.85;80.35;101033.50;5031948;28;20117;-42
2022/07/24 09:10:06;;;;;;;31.08;8.38;;;;;;;12.83;80.19;101038.28;5033176;28;20021;-41
2022/07/24 09:12:41;;;;;;;33.53;8.38;;;;;;;12.59;81.37;101030.97;5034285;28;20029;-40
2022/07/24 09:15:15;;;;;;;34.83;8.63;;;;;;;12.75;80.78;101035.84;5032831;28;20112;-41
2022/07/24 09:17:56;;;;;;;38.50;8.50;;;;;;;12.68;81.06;101043.94;5034317;28;20026;-41
2022/07/24 09:20:24;;;;;;;36.83;9.05;;;;;;;12.69;80.81;101039.38;5032004;28;20482;-41
2022/07/24 09:22:51;;;;;;;31.80;8.57;;;;;;;12.69;80.93;101044.75;5034117;28;20049;-41
2022/07/24 09:25:22;;;;;;;28.38;8.38;;;;;;;12.82;80.44;101033.09;5032178;28;20040;-42
2022/07/24 09:27:53;;;;;;;28.58;7.78;;;;;;;12.80;80.64;101032.50;5034174;28;20481;-40
2022/07/24 09:30:37;;;;;;;41.92;8.82;;;;;;;12.88;80.57;101033.09;5032412;28;20112;-41
2022/07/24 09:33:11;;;;;;;28.98;8.10;;;;;;;12.99;80.39;101036.91;5033986;28;20043;-41
2022/07/24 09:35:42;;;;;;;31.08;8.15;;;;;;;12.99;80.08;101039.59;5033207;28;20044;-41
2022/07/24 09:38:14;;;;;;;36.80;9.30;;;;;;;12.94;80.51;101034.09;5033741;28;20032;-41
2022/07/24 09:40:46;;;;;;;35.35;8.05;;;;;;;12.91;80.19;101027.25;5015755;28;20517;-41
2022/07/24 09:43:17;;;;;;;45.25;9.30;;;;;;;12.94;80.03;101026.84;5013750;28;20498;-41
2022/07/24 09:45:57;;;;;;;35.55;8.80;;;;;;;12.87;79.94;101034.09;5020837;28;20057;-41
2022/07/24 09:48:28;;;;;;;29.13;7.38;;;;;;;12.76;80.67;101033.97;5016043;28;20025;-43
2022/07/24 09:51:01;;;;;;;34.72;8.88;;;;;;;12.87;80.22;101034.09;5033043;28;20111;-41
2022/07/24 09:53:30;;;;;;;26.75;7.53;;;;;;;12.72;80.41;101035.47;5031481;28;20065;-41
2022/07/24 09:55:57;;;;;;;40.30;8.75;;;;;;;12.71;80.86;101034.63;5033064;28;20036;-40
2022/07/24 09:58:25;;;;;;;42.78;8.32;;;;;;;12.75;80.86;101033.16;5018765;28;20171;-41
2022/07/24 10:00:56;;;;;;;36.97;8.27;;;;;;;12.67;81.11;101033.41;5032096;28;20021;-41
2022/07/24 10:03:32;;;;;;;32.47;8.88;;;;;;;12.75;80.91;101026.97;5030970;28;20033;-40
2022/07/24 10:06:01;;;;;;;32.80;8.52;;;;;;;12.65;81.16;101027.41;5032769;28;20045;-40
2022/07/24 10:08:28;;;;;;;39.17;8.32;;;;;;;12.63;80.95;101024.13;5031038;28;20042;-41
2022/07/24 10:10:55;;;;;;;36.33;8.25;;;;;;;12.58;81.13;101016.72;5032938;28;20025;-41
2022/07/24 10:13:21;;;;;;;35.25;8.23;;;;;;;12.70;80.89;101016.84;5031534;28;20030;-41
2022/07/24 10:16:12;;;;;;;33.60;8.10;;;;;;;12.64;80.99;101017.72;5032651;28;20037;-41
2022/07/24 10:18:54;;;;;;;31.20;8.38;;;;;;;12.75;80.93;101016.22;5031085;28;20646;-41
2022/07/24 10:21:23;;;;;;;33.65;8.65;;;;;;;12.74;80.98;101010.03;5032600;28;20478;-41
2022/07/24 10:24:24;;;;;;;25.65;8.15;;;;;;;12.76;80.75;101012.47;5029975;28;20112;-41
2022/07/24 10:26:56;;;;;;;32.92;8.80;;;;;;;12.75;80.62;101014.34;5032241;28;20061;-41
2022/07/24 10:29:24;;;;;;;28.70;7.10;;;;;;;12.81;80.06;101012.66;5014545;28;20029;-41
2022/07/24 10:31:55;;;;;;;26.00;6.57;;;;;;;12.81;80.43;101010.78;5012660;28;20072;-41
2022/07/24 10:34:32;;;;;;;29.65;8.23;;;;;;;12.72;81.23;101013.97;5014944;28;20092;-41
2022/07/24 10:37:19;;;;;;;35.10;7.80;;;;;;;12.79;81.19;101012.06;5012306;28;20030;-41
2022/07/24 10:39:51;;;;;;;38.08;8.63;;;;;;;12.66;81.74;101013.78;5028778;28;20030;-42
2022/07/24 10:42:17;;;;;;;27.40;7.45;;;;;;;12.75;81.19;101014.34;5031088;28;20025;-41
2022/07/24 10:44:44;;;;;;;30.40;8.32;;;;;;;12.81;81.00;101016.16;5039196;23;20057;-41
2022/07/24 10:47:14;;;;;;;37.83;8.93;;;;;;;12.74;81.40;101015.41;5022797;28;20617;-41
2022/07/24 10:49:44;;;;;;;26.00;7.22;;;;;;;12.67;81.75;101022.69;5031741;28;20192;-42
2022/07/24 10:52:24;;;;;;;24.83;6.97;;;;;;;12.75;81.81;101025.09;5029378;28;20032;-41
2022/07/24 10:55:32;;;;;;;25.95;7.75;;;;;;;12.84;81.31;101029.19;5032357;28;20382;-42
2022/07/24 10:58:16;;;;;;;27.85;7.95;;;;;;;12.83;81.21;101022.16;4969350;28;20591;-41
2022/07/24 11:00:47;;;;;;;25.80;7.57;;;;;;;12.78;81.49;101018.47;5010013;28;20495;-41
2022/07/24 11:03:30;;;;;;;35.85;8.15;;;;;;;12.74;81.39;101020.78;5027480;28;20083;-42
2022/07/24 11:06:11;;;;;;;36.00;9.10;;;;;;;12.75;81.44;101018.91;5032136;28;20520;-41
2022/07/24 11:08:40;;;;;;;30.35;7.78;;;;;;;12.78;81.20;101022.00;5031031;28;20375;-41
2022/07/24 11:11:18;;;;;;;24.42;6.38;;;;;;;12.85;80.70;101030.81;5031451;28;20029;-41
2022/07/24 11:13:46;;;;;;;28.55;7.50;;;;;;;12.69;81.12;101028.66;5029006;28;20053;-41
2022/07/24 11:16:19;;;;;;;27.40;7.18;;;;;;;12.83;80.78;101029.41;5030415;28;20489;-41
2022/07/24 11:18:47;;;;;;;33.25;7.45;;;;;;;12.77;81.15;101024.88;5031715;28;20053;-41
2022/07/24 11:21:35;;;;;;;27.92;7.20;;;;;;;12.85;81.15;101020.06;5029567;28;20037;-41